の過去48時間の天気

Trondheim / Vaernes

現在時刻: 2/20 18:58 CET (2/20 17:58 UTC) 以下の時間は現地時間です。

過去48時間のMETAR気象情報
時間 風向 風速(m/s) 視程 気温(℃) 湿度(%) 気圧(hPa) 天気現象
20 18:20 北東 3 10km以上 7 53 982
20 17:50 南南東 5 10km以上 6 57 982
20 17:20 不定 2 10km以上 6 57 983
20 16:50 南南東 8 10km以上 6 57 983
20 16:20 南南東 9 10km以上 7 49 984
20 15:50 南南東 9 10km以上 6 57 985
20 15:20 南南東 6 10km以上 6 57 986
20 14:50 南東 4 10km以上 5 56 987
20 14:20 南東 6 10km以上 5 56 988
20 13:50 南東 5 10km以上 5 56 989
20 13:20 南南東 7 10km以上 5 56 989
20 12:50 南東 7 10km以上 5 56 990
20 12:20 南東 6 10km以上 5 56 990
20 11:50 南東 5 10km以上 5 56 991
20 11:20 南東 8 10km以上 5 56 991
20 10:50 南東 6 10km以上 5 56 991
20 10:20 南東 6 10km以上 4 60 992
20 09:50 南南東 6 10km以上 4 56 993
20 09:20 南南東 5 10km以上 3 60 993
20 08:50 南東 6 10km以上 3 65 994
20 08:20 南南東 5 10km以上 3 60 994
20 07:50 南東 4 10km以上 3 56 994
20 07:20 4 10km以上 3 56 994
20 06:50 南東 8 10km以上 3 56 994
20 06:20 南東 7 10km以上 3 56 995
20 05:50 東南東 5 10km以上 3 56 996
20 05:20 東南東 4 10km以上 2 55 997
20 04:50 4 10km以上 2 60 997
20 04:20 3 10km以上 2 60 998
20 03:50 4 10km以上 2 60 998
20 03:20 東南東 4 10km以上 2 55 999
20 02:50 東南東 4 10km以上 2 55 999
20 02:20 4 10km以上 1 60 1000
20 01:50 4 10km以上 0 69 1000
20 01:20 5 10km以上 -2 74 1001
20 00:50 3 10km以上 -3 80 1002
20 00:20 4 10km以上 -3 80 1003
19 23:50 東北東 4 10km以上 -3 80 1003
19 23:20 5 10km以上 -3 80 1003
19 22:50 4 10km以上 -3 80 1003
19 22:20 4 10km以上 -2 74 1004
19 21:50 5 10km以上 -2 80 1004
19 21:20 5 10km以上 -2 80 1004
19 20:50 4 10km以上 -2 86 1004
ENVA 201720Z 05006KT 340V140 9999 FEW030 BKN060 07/M02 Q0982 TEMPO 17020G30KT RMK WIND 670FT VRB13G38KT
ENVA 201650Z 16009KT 100V230 9999 FEW030 BKN060 06/M02 Q0982 TEMPO 17020G30KT RMK WIND 670FT 16013G27KT
ENVA 201620Z VRB04KT 9999 FEW030 BKN060 06/M02 Q0983 TEMPO 17020G30KT RMK WIND 670FT 16013G34KT
ENVA 201550Z 15015KT 9999 FEW040 BKN064 06/M02 Q0983 TEMPO 17020G30KT RMK WIND 670FT 17026G40KT
ENVA 201520Z 15017KT 130V190 9999 FEW050 BKN070 07/M03 Q0984 TEMPO 17020G35KT RMK WIND 670FT 16026G44KT
ENVA 201450Z 16018KT 9999 BKN055 06/M02 Q0985 TEMPO 17020G35KT RMK WIND 670FT 17031G45KT
ENVA 201420Z 15011G24KT 110V190 CAVOK 06/M02 Q0986 TEMPO 17020G35KT RMK WIND 670FT 18030G45KT
ENVA 201350Z 14008G19KT 070V210 CAVOK 05/M03 Q0987 TEMPO 17020G30KT RMK WIND 670FT 17024G40KT
ENVA 201320Z 13012KT CAVOK 05/M03 Q0988 TEMPO 17020G35KT RMK WIND 670FT 15018G28KT
ENVA 201250Z 14009KT 090V230 CAVOK 05/M03 Q0989 TEMPO 17025G38KT RMK WIND 670FT 17022G36KT
ENVA 201220Z 16014KT CAVOK 05/M03 Q0989 TEMPO 17020G35KT RMK WIND 670FT 17025G38KT
ENVA 201150Z 14013KT CAVOK 05/M03 Q0990 TEMPO 17015G25KT RMK WIND 670FT 17025KT
ENVA 201120Z 13012KT 9999 FEW055 BKN070 05/M03 Q0990 TEMPO 17015G25KT RMK WIND 670FT 17021G34KT
ENVA 201050Z 13010KT 100V180 CAVOK 05/M03 Q0991 TEMPO 17015G25KT RMK WIND 670FT 17022KT
ENVA 201020Z 14016KT CAVOK 05/M03 Q0991 TEMPO 17020G30KT RMK WIND 670FT 16022KT
ENVA 200950Z 14012KT CAVOK 05/M03 Q0991 TEMPO 17015G25KT RMK WIND 670FT 17021KT
ENVA 200920Z 14012KT CAVOK 04/M03 Q0992 TEMPO 17015G25KT RMK WIND 670FT 17020KT
ENVA 200850Z 15011KT 110V190 CAVOK 04/M04 Q0993 TEMPO 17020G30KT RMK WIND 670FT 18020G34KT
ENVA 200820Z 15009G19KT 100V180 CAVOK 03/M04 Q0993 TEMPO 17020G30KT RMK WIND 670FT 17022G35KT
ENVA 200750Z 14011KT CAVOK 03/M03 Q0994 TEMPO 17020G30KT RMK WIND 670FT 16017KT
ENVA 200720Z 15009KT 120V190 CAVOK 03/M04 Q0994 TEMPO 17020G30KT RMK WIND 670FT 17017KT
ENVA 200650Z 13008KT 090V190 CAVOK 03/M05 Q0994 TEMPO 17020G30KT RMK WIND 670FT 17016G28KT
ENVA 200620Z 09007KT 060V180 CAVOK 03/M05 Q0994 TEMPO 17020G30KT RMK WIND 670FT VRB07G29KT
ENVA 200550Z 14016KT CAVOK 03/M05 Q0994 TEMPO 17020G30KT RMK WIND 670FT 15022KT
ENVA 200520Z 14013KT CAVOK 03/M05 Q0995 RMK WIND 670FT 16021KT
ENVA 200450Z 11009KT CAVOK 03/M05 Q0996 RMK WIND 670FT 16017KT
ENVA 200420Z 11007KT 080V150 CAVOK 02/M06 Q0997 RMK WIND 670FT 16011KT
ENVA 200350Z 09007G17KT 010V160 CAVOK 02/M05 Q0997 RMK WIND 670FT 17021G31KT
ENVA 200320Z VRB05G16KT CAVOK 02/M05 Q0998 RMK WIND 670FT 17021G34KT
ENVA 200250Z 10008KT 050V150 CAVOK 02/M05 Q0998 RMK WIND 670FT 16013G24KT
ENVA 200220Z 11007KT 060V150 CAVOK 02/M06 Q0999 RMK WIND 670FT 15014KT
ENVA 200150Z 11008KT 080V150 CAVOK 02/M06 Q0999 RMK WIND 670FT 14010KT
ENVA 200120Z 08007KT 030V120 CAVOK 01/M06 Q1000 RMK WIND 670FT 14012KT
ENVA 200050Z 09008KT CAVOK 00/M05 Q1000 RMK WIND 670FT 14014KT
ENVA 200020Z 09009KT CAVOK M02/M06 Q1001 RMK WIND 670FT 14018KT
ENVA 192350Z 09005KT CAVOK M03/M06 Q1002 RMK WIND 670FT 14013KT
ENVA 192320Z 09007KT CAVOK M03/M06 Q1003 RMK WIND 670FT 14013KT
ENVA 192250Z 07007KT 040V100 CAVOK M03/M06 Q1003 RMK WIND 670FT 14017KT
ENVA 192220Z 09010KT CAVOK M03/M06 Q1003 RMK WIND 670FT 14015KT
ENVA 192150Z 09008KT CAVOK M03/M06 Q1003 RMK WIND 670FT 14015KT
ENVA 192120Z 08007KT CAVOK M02/M06 Q1004 RMK WIND 670FT 13009KT
ENVA 192050Z 09009KT CAVOK M02/M05 Q1004 RMK WIND 670FT 13013KT
ENVA 192020Z 09010KT CAVOK M02/M05 Q1004 NOSIG RMK WIND 670FT 12009KT
ENVA 191950Z 09008KT CAVOK M02/M04 Q1004 NOSIG RMK WIND 670FT 13010KT